createdAt,value
2019-03-20T00:03:30.618Z,98281.84
2019-03-20T00:08:25.198Z,98282.02
2019-03-20T00:13:19.764Z,98281.84
2019-03-20T00:18:14.362Z,98283.06
2019-03-20T00:23:09.005Z,98292.11
2019-03-20T00:28:03.673Z,98286.28
2019-03-20T00:32:58.244Z,98285.20
2019-03-20T00:37:52.902Z,98290.19
2019-03-20T00:42:47.807Z,98297.76
2019-03-20T00:47:42.462Z,98292.04
2019-03-20T00:52:37.027Z,98286.62
2019-03-20T00:57:31.613Z,98290.39
2019-03-20T01:02:26.186Z,98283.83
2019-03-20T01:07:20.851Z,98284.28
2019-03-20T01:12:17.615Z,98288.29
2019-03-20T01:17:11.760Z,98282.53
2019-03-20T01:22:06.425Z,98284.14
2019-03-20T01:27:01.035Z,98286.95
2019-03-20T01:31:55.598Z,98290.85
2019-03-20T01:36:50.201Z,98284.13
2019-03-20T01:41:44.773Z,98283.05
2019-03-20T01:46:39.372Z,98291.20
2019-03-20T01:51:33.952Z,98284.50
2019-03-20T01:56:28.544Z,98287.16
2019-03-20T02:01:23.122Z,98285.37
2019-03-20T02:06:17.814Z,98285.29
2019-03-20T02:11:12.394Z,98288.10
2019-03-20T02:16:06.993Z,98287.75
2019-03-20T02:21:01.630Z,98284.02
2019-03-20T02:25:56.233Z,98271.90
2019-03-20T02:30:50.815Z,98284.09
2019-03-20T02:35:51.689Z,98280.63
2019-03-20T02:40:41.742Z,98276.05
2019-03-20T02:45:36.346Z,98279.12
2019-03-20T02:50:30.931Z,98282.30
2019-03-20T02:55:25.597Z,98286.23
2019-03-20T03:00:23.393Z,98290.64
2019-03-20T03:05:19.725Z,98289.80
2019-03-20T03:10:18.787Z,98285.94
2019-03-20T03:15:15.304Z,98288.29
2019-03-20T03:20:16.355Z,98287.94
2019-03-20T03:25:12.865Z,98287.62
2019-03-20T03:30:19.852Z,98288.78
2019-03-20T03:35:18.205Z,98281.30
2019-03-20T03:40:17.221Z,98283.41
2019-03-20T03:45:18.475Z,98289.85
2019-03-20T03:50:13.561Z,98293.49
2019-03-20T03:55:11.542Z,98285.83
2019-03-20T04:00:18.531Z,98295.08
2019-03-20T04:05:13.969Z,98296.84
2019-03-20T04:10:12.277Z,98299.84
2019-03-20T04:15:11.276Z,98304.20
2019-03-20T04:20:15.563Z,98310.64
2019-03-20T04:25:11.752Z,98314.86
2019-03-20T04:30:13.181Z,98312.05
2019-03-20T04:35:08.808Z,98313.95
2019-03-20T04:40:03.669Z,98327.64
2019-03-20T04:44:58.259Z,98321.68
2019-03-20T04:49:52.857Z,98320.14
2019-03-20T04:54:47.444Z,98323.89
2019-03-20T04:59:42.108Z,98333.30
2019-03-20T05:04:36.712Z,98336.44
2019-03-20T05:09:31.311Z,98332.67
2019-03-20T05:14:25.889Z,98334.67
2019-03-20T05:19:20.481Z,98344.75
2019-03-20T05:24:15.110Z,98356.00
2019-03-20T05:29:09.695Z,98356.95
2019-03-20T05:34:04.309Z,98370.77
2019-03-20T05:38:58.993Z,98362.30
2019-03-20T05:43:53.566Z,98371.77
2019-03-20T05:48:48.157Z,98384.19
2019-03-20T05:53:42.778Z,98369.13
2019-03-20T05:58:37.371Z,98375.42
2019-03-20T06:03:31.946Z,98381.48
2019-03-20T06:08:26.567Z,98387.95
2019-03-20T06:13:21.156Z,98401.16
2019-03-20T06:18:15.754Z,98393.67
2019-03-20T06:23:11.272Z,98396.42
2019-03-20T06:28:05.897Z,98392.81
2019-03-20T06:33:00.509Z,98394.90
2019-03-20T06:37:55.127Z,98405.52
2019-03-20T06:42:49.730Z,98406.21
2019-03-20T06:47:44.394Z,98421.20
2019-03-20T06:52:38.989Z,98419.47
2019-03-20T06:57:33.574Z,98424.43
2019-03-20T07:02:27.885Z,98431.09
2019-03-20T07:07:43.201Z,98428.91
2019-03-20T07:12:29.030Z,98432.19
2019-03-20T07:17:23.808Z,98446.83
2019-03-20T07:22:18.394Z,98439.69
2019-03-20T07:27:12.977Z,98441.22
2019-03-20T07:32:07.631Z,98449.73
2019-03-20T07:37:02.312Z,98457.53
2019-03-20T07:41:56.911Z,98463.44
2019-03-20T07:46:51.477Z,98465.34
2019-03-20T07:51:46.148Z,98464.72
2019-03-20T07:56:42.159Z,98462.19
2019-03-20T08:01:41.073Z,98461.95
2019-03-20T08:06:35.657Z,98470.98
2019-03-20T08:11:30.246Z,98473.00
2019-03-20T08:16:30.813Z,98476.55
2019-03-20T08:21:25.448Z,98462.30
2019-03-20T08:26:20.558Z,98450.52
2019-03-20T08:31:15.160Z,98451.98
2019-03-20T08:36:17.264Z,98442.88
2019-03-20T08:41:16.072Z,98460.06
2019-03-20T08:46:10.806Z,98455.98
2019-03-20T08:51:05.704Z,98466.84
2019-03-20T08:56:00.475Z,98456.19
2019-03-20T09:01:03.989Z,98453.94
2019-03-20T09:06:01.245Z,98464.36
2019-03-20T09:11:02.765Z,98457.79
2019-03-20T09:16:02.959Z,98451.21
2019-03-20T09:21:03.082Z,98456.11
2019-03-20T09:26:03.563Z,98457.73
2019-03-20T09:31:04.724Z,98467.03
2019-03-20T09:36:04.530Z,98460.16
2019-03-20T09:40:59.504Z,98463.42
2019-03-20T09:45:54.219Z,98469.58
2019-03-20T09:50:52.180Z,98461.39
2019-03-20T09:55:47.028Z,98465.37
2019-03-20T10:00:41.716Z,98465.04
2019-03-20T10:05:36.454Z,98454.22
2019-03-20T10:10:32.291Z,98449.95
2019-03-20T10:15:31.483Z,98446.59
2019-03-20T10:20:26.749Z,98458.94
2019-03-20T10:25:21.471Z,98452.85
2019-03-20T10:30:29.809Z,98447.80
2019-03-20T10:35:24.520Z,98436.43
2019-03-20T10:40:24.964Z,98434.67
2019-03-20T10:45:20.386Z,98439.16
2019-03-20T10:50:26.867Z,98439.34
2019-03-20T10:55:21.665Z,98433.78
2019-03-20T11:00:24.066Z,98430.95
2019-03-20T11:05:19.577Z,98434.34
2019-03-20T11:10:23.853Z,98444.09
2019-03-20T11:15:23.127Z,98437.70
2019-03-20T11:20:25.279Z,98436.23
2019-03-20T11:25:30.489Z,98437.55
2019-03-20T11:30:27.759Z,98441.52
2019-03-20T11:35:22.967Z,98436.34
2019-03-20T11:40:24.745Z,98440.73
2019-03-20T11:45:19.817Z,98424.73
2019-03-20T11:50:19.119Z,98429.36
2019-03-20T11:55:14.755Z,98428.16
2019-03-20T12:00:19.043Z,98423.34
2019-03-20T12:05:13.938Z,98413.52
2019-03-20T12:10:16.136Z,98410.25
2019-03-20T12:15:16.977Z,98400.78
2019-03-20T12:20:18.850Z,98398.25
2019-03-20T12:25:26.402Z,98395.00
2019-03-20T12:30:25.231Z,98387.57
2019-03-20T12:35:21.171Z,98388.30
2019-03-20T12:40:28.506Z,98377.66
2019-03-20T12:45:29.982Z,98375.05
2019-03-20T12:50:24.623Z,98374.57
2019-03-20T12:55:20.806Z,98376.10
2019-03-20T13:00:22.359Z,98364.33
2019-03-20T13:05:17.365Z,98366.89
2019-03-20T13:10:19.483Z,98360.84
2019-03-20T13:15:28.163Z,98363.36
2019-03-20T13:20:23.533Z,98343.95
2019-03-20T13:25:18.921Z,98351.16
2019-03-20T13:30:20.961Z,98357.98
2019-03-20T13:35:15.723Z,98344.94
2019-03-20T13:40:14.934Z,98342.03
2019-03-20T13:45:16.363Z,98341.97
2019-03-20T13:50:15.198Z,98332.25
2019-03-20T13:55:15.361Z,98331.23
2019-03-20T14:00:26.720Z,98324.37
2019-03-20T14:05:21.803Z,98319.02
2019-03-20T14:10:25.003Z,98314.29
2019-03-20T14:15:18.482Z,98316.47
2019-03-20T14:20:20.069Z,98309.45
2019-03-20T14:25:15.470Z,98311.16
2019-03-20T14:30:25.985Z,98319.11
2019-03-20T14:35:20.834Z,98304.01
2019-03-20T14:40:36.257Z,98300.92
2019-03-20T14:45:27.451Z,98298.80
2019-03-20T14:50:27.091Z,98303.96
2019-03-20T14:55:21.776Z,98301.72
2019-03-20T15:00:22.766Z,98288.34
2019-03-20T15:05:17.517Z,98296.48
2019-03-20T15:10:24.872Z,98290.03
2019-03-20T15:15:24.201Z,98303.11
2019-03-20T15:20:19.109Z,98283.68
2019-03-20T15:25:15.105Z,98284.69
2019-03-20T15:30:20.178Z,98283.80
2019-03-20T15:35:14.980Z,98288.63
2019-03-20T15:40:16.476Z,98283.97
2019-03-20T15:45:19.451Z,98283.55
2019-03-20T15:50:23.948Z,98299.59
2019-03-20T15:55:37.559Z,98291.59
2019-03-20T16:00:32.251Z,98300.81
2019-03-20T16:05:26.869Z,98285.88
2019-03-20T16:10:23.917Z,98290.27
2019-03-20T16:15:22.195Z,98289.65
2019-03-20T16:20:17.846Z,98291.16
2019-03-20T16:25:21.955Z,98289.72
2019-03-20T16:30:23.145Z,98299.86
2019-03-20T16:35:17.852Z,98300.15
2019-03-20T16:40:30.499Z,98305.16
2019-03-20T16:45:32.472Z,98308.61
2019-03-20T16:50:27.237Z,98309.91
2019-03-20T16:55:21.900Z,98314.78
2019-03-20T17:00:29.377Z,98323.50
2019-03-20T17:05:24.474Z,98323.98
2019-03-20T17:10:31.494Z,98334.50
2019-03-20T17:15:34.400Z,98342.36
2019-03-20T17:20:29.139Z,98344.59
2019-03-20T17:25:23.790Z,98353.92
2019-03-20T17:30:22.169Z,98358.03
2019-03-20T17:35:16.901Z,98368.70
2019-03-20T17:40:19.178Z,98375.28
2019-03-20T17:45:20.483Z,98382.56
2019-03-20T17:50:25.418Z,98393.27
2019-03-20T17:55:20.129Z,98391.38
2019-03-20T18:00:28.508Z,98400.53
2019-03-20T18:05:23.091Z,98399.61
2019-03-20T18:10:17.695Z,98398.33
2019-03-20T18:15:15.885Z,98404.03
2019-03-20T18:20:14.497Z,98410.14
2019-03-20T18:25:12.283Z,98413.23
2019-03-20T18:30:25.313Z,98409.51
2019-03-20T18:35:20.146Z,98407.90
2019-03-20T18:40:27.158Z,98417.70
2019-03-20T18:45:24.635Z,98408.91
2019-03-20T18:50:21.451Z,98420.66
2019-03-20T18:55:18.239Z,98421.66
2019-03-20T19:00:26.569Z,98419.23
2019-03-20T19:05:31.840Z,98414.83
2019-03-20T19:10:26.397Z,98428.87
2019-03-20T19:15:21.218Z,98430.81
2019-03-20T19:20:16.626Z,98436.34
2019-03-20T19:25:17.671Z,98446.47
2019-03-20T19:30:26.723Z,98443.52
2019-03-20T19:35:21.553Z,98444.16
2019-03-20T19:40:19.159Z,98440.25
2019-03-20T19:45:18.553Z,98443.33
2019-03-20T19:50:25.096Z,98444.61
2019-03-20T19:55:19.915Z,98441.22
2019-03-20T20:00:21.283Z,98438.26
2019-03-20T20:05:16.429Z,98441.34
2019-03-20T20:10:19.345Z,98448.66
2019-03-20T20:15:33.471Z,98437.59
2019-03-20T20:20:40.289Z,98451.63
2019-03-20T20:25:34.864Z,98443.45
2019-03-20T20:30:29.458Z,98443.45
2019-03-20T20:35:24.138Z,98443.78
2019-03-20T20:40:22.425Z,98433.98
2019-03-20T20:45:17.018Z,98441.81
2019-03-20T20:50:14.735Z,98444.72
2019-03-20T20:55:22.163Z,98445.65
2019-03-20T21:00:25.080Z,98443.00
2019-03-20T21:05:19.835Z,98440.39
2019-03-20T21:10:20.612Z,98445.61
2019-03-20T21:15:34.913Z,98448.55
2019-03-20T21:20:29.540Z,98447.53
2019-03-20T21:25:24.147Z,98453.37
2019-03-20T21:30:40.186Z,98450.70
2019-03-20T21:35:59.916Z,98447.09
2019-03-20T21:41:30.713Z,98449.34
2019-03-20T21:46:47.950Z,98448.79
2019-03-20T21:51:42.541Z,98445.66
2019-03-20T21:57:07.159Z,98442.21
2019-03-20T22:02:40.602Z,98439.24
2019-03-20T22:07:35.180Z,98432.92
2019-03-20T22:12:34.392Z,98437.87
2019-03-20T22:18:05.030Z,98430.25
2019-03-20T22:23:40.042Z,98419.82
2019-03-20T22:28:58.761Z,98413.27
2019-03-20T22:34:46.578Z,98407.05
2019-03-20T22:40:17.803Z,98415.80
2019-03-20T22:46:05.392Z,98414.16
2019-03-20T22:51:07.012Z,98416.67
2019-03-20T22:56:22.470Z,98413.57
2019-03-20T23:01:24.440Z,98408.19
2019-03-20T23:06:19.251Z,98414.52
2019-03-20T23:11:13.830Z,98410.89
2019-03-20T23:16:12.635Z,98411.84
2019-03-20T23:21:07.280Z,98404.04
2019-03-20T23:26:01.886Z,98408.45
2019-03-20T23:30:56.461Z,98401.16
2019-03-20T23:35:51.047Z,98392.63
2019-03-20T23:40:45.615Z,98393.38
2019-03-20T23:45:40.230Z,98397.27
2019-03-20T23:50:34.821Z,98385.90
2019-03-20T23:55:29.412Z,98385.20
